Relevés horaires Schaffen (Belgique)


Relevés horaires à Schaffen - Mercredi 12 Févr. 2020
Heure UTC1 Température [°C] Vent [km/h] Hum. [%] Pres.4 [hPa] Visi. [Km] Nébu. [octa] Préc.5 [mm] Cond.
2m. Res. Ros. Dir.2 Vit. Moy. Raf.3
23:00 3.6 2.3 0.4 S 5.6 -- 9.3 80 1017(-0.8/3h) 20 -- -- --
22:00 3.7 2.4 0.3 SSO 5.6 -- 11.1 78 1017.3(-0.5/3h) 20 -- -- --
21:00 4.0 2.7 -- S 5.6 -- 9.3 -- 1017.6(0.0/3h) 20 -- -- --
20:00 4.7 4.7 -0.7 SSO 3.7 -- 9.3 68 1017.7(0.5/3h) 20 -- -- --
19:00 4.6 4.6 -1.5 SSO 3.7 -- 9.3 65 1017.7(1.2/3h) 20 -- -- --
18:00 5.0 5.0 -2.2 OSO 3.7 -- 24.1 60 1017.6(1.4/3h) 20 -- -- --
17:00 6.0 4 -2.6 O 9.3 -- 18.5 54 1017.2(1.1/3h) 20 -- -- --
16:00 7.0 5.2 -2.5 O 9.3 -- 18.5 51 1016.5(0.6/3h) 20 -- -- --
15:00 8.0 5.7 -2.6 O 13.0 -- 24.1 47 1016.1(0.1/3h) 20 -- -- --
14:00 6.4 4.9 0.4 OSO 7.4 -- 22.2 65 1016(0.1/3h) 20 -- -- --
13:00 7.1 5 -1.9 O 11.1 -- 24.1 53 1015.7(0.3/3h) 20 -- -- --
12:00 6.8 3.7 -0.9 OSO 16.7 -- 24.1 58 1015.8(0.7/3h) 20 -- -- --
11:00 6.5 3.6 0.5 OSO 14.8 -- 24.1 65 1015.8(1.0/3h) 20 -- -- --
10:00 6.0 3.3 0.5 OSO 13.0 -- 22.2 68 1015.5(1.3/3h) 20 -- -- --
09:00 5.1 2.6 0.9 OSO 11.1 -- 20.4 74 1015.2(1.5/3h) 20 -- -- --
08:00 3.9 2 0.6 SO 7.4 -- 18.5 79 1014.8(1.6/3h) 20 -- -- --
07:00 3.5 1.5 0.5 OSO 7.4 -- 16.7 81 1014.2(1.3/3h) 20 -- -- --
06:00 3.7 1.8 0.5 SO 7.4 -- 25.9 80 1013.6(1.1/3h) 20 -- -- --
05:00 3.8 1.4 0.3 OSO 9.3 -- 20.4 78 1013.2(1.1/3h) 20 -- -- --
04:00 4.0 0.9 0.2 SO 13.0 -- 25.9 76 1012.7(0.5/3h) 20 -- -- --
03:00 4.1 1.7 -0.3 SO 9.3 -- 20.4 73 1012.5(0.2/3h) 20 -- -- --
02:00 4.0 1.6 -0.3 SO 9.3 -- 16.7 73 1012.2(0.3/3h) 20 -- -- --
01:00 4.0 1.6 -1.2 SO 9.3 -- 20.4 69 1012.2(0.3/3h) 20 -- -- --
00:00 4.2 1.5 -1.6 OSO 11.1 -- 25.9 66 1012.2(0.7/3h) 20 -- -- --

1 Coordinated Universal Time. Actuellement il est 05:00 locale et 03:00 UTC.

2 Le vent souffle depuis la direction indiquée vers la direction oposée.

3 Les rafales max. sont disponible 40 min après l'heure du relevé.

4 Pour les stations d'altitude (plus de 600m) le géopotentiel du niveau le plus proche de la pression obligatoire est indiqué.

5 Les stations disposant d'un diffuseur peuvent indiquer "trace". Cela signifie que des précipitations ont touchés le sol mais que la quantité est inférieure à 0.1 mm.

Récapitulatif de la journée
Température [°C] Vent [km/h] Ensoleillement4 [h] Precipitations totale5 [mm] Pression [Hpa]
Min1 Max.2 Moy.3 Max. Min Max.
3.5 8.1 0 25.9 0 h 0 min 0 1012.2 1017.7

1 Température minimale relevée entre 18:00 UTC la veille et 18:00 UTC le jour donné.

2 Température maximale relevée entre 06:00 UTC le jour donné et 06:00 UTC le lendemain.

3 Vent moyen de la journée basé sur les relevés horaires.

4 Ensoleillement en heures relevé entre 06:00 UTC la veille et 06:00 UTC le jour donné.

5 Précipitations totales tombées entre 06:00 UTC la jour donné et 06:00 UTC le lendemain.

Graphiques horaires